X  Cerrar Datos meteorológicos de aviación METAR     YPAD Adelaide International
Temperatura
15°C Temperatura
12°C Punto de rocío
82% Humedad



Viento
8 KM/H
5 MPH
2 M/S
4 NUDO



140°
SE
Condiciones actuales

Claro Claro
Presión 1021.92 (hPa) - 30.18 (inHg)
Visibilidad 6.2 (milla) - 10 (km)
Aeropuerto
Código de aeropuerto YPAD

localidad: Adelaide International
Distancia: 20 (km)

Metar:
YPAD 061400Z 14004KT CAVOK 15/12 Q1022

Hora: 06-04-2020 11:30 pm ACST